createdAt,value
2017-05-31T00:00:05.101Z,1014.16
2017-05-31T00:00:45.597Z,1014.04
2017-05-31T00:01:26.095Z,1014.07
2017-05-31T00:02:06.626Z,1014.07
2017-05-31T00:02:47.110Z,1013.96
2017-05-31T00:03:27.609Z,1014
2017-05-31T00:04:08.108Z,1013.88
2017-05-31T00:04:48.622Z,1013.99
2017-05-31T00:05:29.094Z,1013.89
2017-05-31T00:06:09.622Z,1013.99
2017-05-31T00:06:50.141Z,1013.99
2017-05-31T00:07:30.651Z,1014.04
2017-05-31T00:08:11.178Z,1014.06
2017-05-31T00:08:51.659Z,1014.1
2017-05-31T00:09:32.154Z,1014.12
2017-05-31T00:10:12.640Z,1014.06
2017-05-31T00:10:53.163Z,1014.1
2017-05-31T00:11:33.623Z,1014.13
2017-05-31T00:12:14.139Z,1014.1
2017-05-31T00:12:54.636Z,1014.17
2017-05-31T00:13:35.144Z,1014.19
2017-05-31T00:14:15.632Z,1014.19
2017-05-31T00:14:56.114Z,1014.16
2017-05-31T00:15:36.617Z,1014.22
2017-05-31T00:16:17.114Z,1014.18
2017-05-31T00:16:57.613Z,1014.2
2017-05-31T00:17:38.101Z,1014.36
2017-05-31T00:18:18.578Z,1014.18
2017-05-31T00:18:59.108Z,1014.15
2017-05-31T00:19:39.598Z,1014.29
2017-05-31T00:20:20.101Z,1014.18
2017-05-31T00:21:00.628Z,1014.22
2017-05-31T00:21:41.084Z,1014.34
2017-05-31T00:22:21.600Z,1014.21
2017-05-31T00:23:02.091Z,1014.27
2017-05-31T00:23:42.637Z,1014.36
2017-05-31T00:24:23.068Z,1014.22
2017-05-31T00:25:03.583Z,1014.24
2017-05-31T00:25:44.070Z,1014.35
2017-05-31T00:26:24.579Z,1014.28
2017-05-31T00:27:05.085Z,1014.28
2017-05-31T00:27:45.580Z,1014.24
2017-05-31T00:28:26.083Z,1014.23
2017-05-31T00:29:06.591Z,1014.26
2017-05-31T00:29:47.081Z,1014.25
2017-05-31T00:30:27.552Z,1014.34
2017-05-31T00:31:08.069Z,1014.41
2017-05-31T00:31:48.537Z,1014.2
2017-05-31T00:32:29.052Z,1014.25
2017-05-31T00:33:09.527Z,1014.28
2017-05-31T00:33:50.010Z,1014.25
2017-05-31T00:34:30.507Z,1014.21
2017-05-31T00:35:10.995Z,1014.27
2017-05-31T00:35:51.485Z,1014.23
2017-05-31T00:36:31.973Z,1014.2
2017-05-31T00:37:12.472Z,1014.22
2017-05-31T00:37:52.959Z,1014.27
2017-05-31T00:38:33.454Z,1014.26
2017-05-31T00:39:13.962Z,1014.27
2017-05-31T00:39:54.476Z,1014.33
2017-05-31T00:40:34.981Z,1014.22
2017-05-31T00:41:15.483Z,1014.29
2017-05-31T00:41:55.988Z,1014.17
2017-05-31T00:42:36.465Z,1014.25
2017-05-31T00:43:16.975Z,1014.22
2017-05-31T00:43:57.486Z,1014.17
2017-05-31T00:44:37.967Z,1014.16
2017-05-31T00:45:18.447Z,1014.1
2017-05-31T00:45:58.944Z,1014.17
2017-05-31T00:46:39.493Z,1014.15
2017-05-31T00:47:19.968Z,1014.1
2017-05-31T00:48:00.468Z,1014.09
2017-05-31T00:48:40.961Z,1014.05
2017-05-31T00:49:21.475Z,1014.07
2017-05-31T00:50:01.937Z,1014.15
2017-05-31T00:52:22.106Z,1014.13
2017-05-31T00:53:02.597Z,1014.11
2017-05-31T00:53:43.108Z,1014.07
2017-05-31T00:54:23.595Z,1014.06
2017-05-31T00:55:04.109Z,1014.14
2017-05-31T00:55:44.645Z,1014.15
2017-05-31T00:56:25.123Z,1014.09
2017-05-31T00:57:05.633Z,1014.08
2017-05-31T00:57:46.126Z,1014.21
2017-05-31T00:58:26.623Z,1014.08
2017-05-31T00:59:07.107Z,1014.02
2017-05-31T00:59:47.585Z,1014.07
2017-05-31T01:00:28.051Z,1014.13
2017-05-31T01:01:08.566Z,1014.12
2017-05-31T01:01:49.037Z,1014.11
2017-05-31T01:02:29.538Z,1014.14
2017-05-31T01:03:10.049Z,1014.16
2017-05-31T01:03:50.532Z,1014.17
2017-05-31T01:04:31.047Z,1014.23
2017-05-31T01:05:11.552Z,1014.3
2017-05-31T01:05:52.036Z,1014.23
2017-05-31T01:06:32.524Z,1014.2
2017-05-31T01:07:13.006Z,1014.34
2017-05-31T01:07:53.495Z,1014.27
2017-05-31T01:08:34.000Z,1014.48
2017-05-31T01:09:14.484Z,1014.3
2017-05-31T01:09:54.953Z,1014.34
2017-05-31T01:10:35.447Z,1014.3
2017-05-31T01:11:15.939Z,1014.27
2017-05-31T01:11:56.456Z,1014.45
2017-05-31T01:12:36.945Z,1014.29
2017-05-31T01:13:17.460Z,1014.34
2017-05-31T01:13:57.944Z,1014.45
2017-05-31T01:14:38.461Z,1014.38
2017-05-31T01:15:18.944Z,1014.31
2017-05-31T01:15:59.446Z,1014.32
2017-05-31T01:16:39.958Z,1014.36
2017-05-31T01:17:20.460Z,1014.33
2017-05-31T01:18:00.934Z,1014.34
2017-05-31T01:18:41.455Z,1014.32
2017-05-31T01:19:21.963Z,1014.53
2017-05-31T01:20:02.455Z,1014.5
2017-05-31T01:20:42.972Z,1014.4
2017-05-31T01:21:23.505Z,1014.24
2017-05-31T01:22:03.981Z,1014.25
2017-05-31T01:22:44.479Z,1014.34
2017-05-31T01:23:24.976Z,1014.39
2017-05-31T01:24:05.469Z,1014.3
2017-05-31T01:24:45.972Z,1014.32
2017-05-31T01:25:26.433Z,1014.35
2017-05-31T01:26:06.954Z,1014.31
2017-05-31T01:26:47.415Z,1014.36
2017-05-31T01:27:27.884Z,1014.49
2017-05-31T01:28:08.418Z,1014.3
2017-05-31T01:28:48.924Z,1014.36
2017-05-31T01:29:29.373Z,1014.34
2017-05-31T01:30:09.863Z,1014.36
2017-05-31T01:30:50.359Z,1014.34
2017-05-31T01:31:30.838Z,1014.42
2017-05-31T01:32:11.339Z,1014.27
2017-05-31T01:32:51.835Z,1014.43
2017-05-31T01:33:32.344Z,1014.53
2017-05-31T01:34:12.814Z,1014.49
2017-05-31T01:36:11.898Z,1014.44
2017-05-31T01:36:52.374Z,1014.48
2017-05-31T01:37:32.857Z,1014.38
2017-05-31T01:38:13.367Z,1014.44
2017-05-31T01:38:53.866Z,1014.42
2017-05-31T01:39:34.360Z,1014.39
2017-05-31T01:40:14.844Z,1014.44
2017-05-31T01:40:55.324Z,1014.4
2017-05-31T01:41:35.800Z,1014.44
2017-05-31T01:42:16.263Z,1014.48
2017-05-31T01:42:56.746Z,1014.58
2017-05-31T01:43:37.268Z,1014.5
2017-05-31T01:44:17.743Z,1014.56
2017-05-31T01:44:58.240Z,1014.6
2017-05-31T01:45:38.714Z,1014.56
2017-05-31T01:46:19.205Z,1014.5
2017-05-31T01:46:59.696Z,1014.38
2017-05-31T01:47:40.174Z,1014.39
2017-05-31T01:48:20.627Z,1014.48
2017-05-31T01:49:01.128Z,1014.38
2017-05-31T01:49:41.592Z,1014.36
2017-05-31T01:50:22.127Z,1014.44
2017-05-31T01:51:02.617Z,1014.42
2017-05-31T01:51:43.115Z,1014.37
2017-05-31T01:52:23.574Z,1014.44
2017-05-31T01:53:04.070Z,1014.51
2017-05-31T01:53:44.541Z,1014.38
2017-05-31T01:54:25.025Z,1014.44
2017-05-31T01:55:05.505Z,1014.29
2017-05-31T01:55:46.022Z,1014.36
2017-05-31T01:56:26.513Z,1014.28
2017-05-31T01:57:06.967Z,1014.29
2017-05-31T01:57:47.449Z,1014.57
2017-05-31T01:58:27.943Z,1014.35
2017-05-31T01:59:08.442Z,1014.48
2017-05-31T01:59:48.927Z,1014.36
2017-05-31T02:00:29.393Z,1014.44
2017-05-31T02:01:09.896Z,1014.38
2017-05-31T02:01:50.351Z,1014.26
2017-05-31T02:02:30.861Z,1014.4
2017-05-31T02:03:11.307Z,1014.3
2017-05-31T02:03:51.782Z,1014.28
2017-05-31T02:04:32.292Z,1014.28
2017-05-31T02:05:12.780Z,1014.3
2017-05-31T02:05:53.260Z,1014.41
2017-05-31T02:06:33.748Z,1014.36
2017-05-31T02:07:14.234Z,1014.41
2017-05-31T02:07:54.749Z,1014.32
2017-05-31T02:08:35.227Z,1014.38
2017-05-31T02:09:15.712Z,1014.38
2017-05-31T02:09:56.197Z,1014.31
2017-05-31T02:10:36.675Z,1014.43
2017-05-31T02:11:17.168Z,1014.34
2017-05-31T02:11:57.658Z,1014.43
2017-05-31T02:12:38.168Z,1014.37
2017-05-31T02:13:18.698Z,1014.33
2017-05-31T02:13:59.170Z,1014.55
2017-05-31T02:14:39.671Z,1014.38
2017-05-31T02:15:20.173Z,1014.35
2017-05-31T02:16:00.766Z,1014.36
2017-05-31T02:16:41.261Z,1014.46
2017-05-31T02:17:21.774Z,1014.46
2017-05-31T02:18:02.246Z,1014.59
2017-05-31T02:18:42.754Z,1014.51
2017-05-31T02:19:23.240Z,1014.42
2017-05-31T02:20:03.737Z,1014.34
2017-05-31T02:20:44.250Z,1014.36
2017-05-31T02:21:24.772Z,1014.46
2017-05-31T02:22:05.245Z,1014.45
2017-05-31T02:22:45.724Z,1014.41
2017-05-31T02:23:26.199Z,1014.45
2017-05-31T02:24:06.688Z,1014.64
2017-05-31T02:24:47.193Z,1014.28
2017-05-31T02:25:27.651Z,1014.37
2017-05-31T02:26:08.136Z,1014.37
2017-05-31T02:26:48.621Z,1014.47
2017-05-31T02:27:29.129Z,1014.43
2017-05-31T02:28:09.675Z,1014.46
2017-05-31T02:28:50.164Z,1014.48
2017-05-31T02:29:30.645Z,1014.53
2017-05-31T02:31:29.605Z,1014.47
2017-05-31T02:32:10.046Z,1014.67
2017-05-31T02:32:50.595Z,1014.5
2017-05-31T02:33:31.084Z,1014.36
2017-05-31T02:34:11.529Z,1014.4
2017-05-31T02:34:52.050Z,1014.45
2017-05-31T02:35:32.575Z,1014.52
2017-05-31T02:36:13.040Z,1014.45
2017-05-31T02:36:53.517Z,1014.56
2017-05-31T02:37:34.014Z,1014.52
2017-05-31T02:38:14.492Z,1014.45
2017-05-31T02:38:55.016Z,1014.53
2017-05-31T02:39:35.490Z,1014.52
2017-05-31T02:40:15.965Z,1014.51
2017-05-31T02:40:56.466Z,1014.47
2017-05-31T02:41:36.962Z,1014.55
2017-05-31T02:42:17.443Z,1014.47
2017-05-31T02:42:57.913Z,1014.47
2017-05-31T02:43:38.394Z,1014.43
2017-05-31T02:44:18.907Z,1014.51
2017-05-31T02:44:59.434Z,1014.53
2017-05-31T02:45:39.907Z,1014.48
2017-05-31T02:46:20.395Z,1014.59
2017-05-31T02:47:00.890Z,1014.56
2017-05-31T02:47:41.375Z,1014.56
2017-05-31T02:48:21.847Z,1014.52
2017-05-31T02:49:02.365Z,1014.48
2017-05-31T02:49:42.852Z,1014.57
2017-05-31T02:50:23.329Z,1014.53
2017-05-31T02:51:03.841Z,1014.54
2017-05-31T02:51:44.325Z,1014.5
2017-05-31T02:52:24.806Z,1014.53
2017-05-31T02:53:05.349Z,1014.52
2017-05-31T02:53:45.852Z,1014.49
2017-05-31T02:54:26.340Z,1014.51
2017-05-31T02:55:06.820Z,1014.56
2017-05-31T02:55:47.349Z,1014.55
2017-05-31T02:56:27.882Z,1014.5
2017-05-31T02:57:08.362Z,1014.49
2017-05-31T02:57:48.843Z,1014.5
2017-05-31T02:58:29.336Z,1014.46
2017-05-31T02:59:09.849Z,1014.55
2017-05-31T02:59:50.365Z,1014.51
2017-05-31T03:00:30.845Z,1014.55
2017-05-31T03:01:11.359Z,1014.67
2017-05-31T03:01:51.848Z,1014.57
2017-05-31T03:02:32.320Z,1014.54
2017-05-31T03:03:12.815Z,1014.54
2017-05-31T03:03:53.329Z,1014.65
2017-05-31T03:04:33.813Z,1014.61
2017-05-31T03:05:14.306Z,1014.6
2017-05-31T03:05:54.803Z,1014.62
2017-05-31T03:06:35.306Z,1014.58
2017-05-31T03:07:15.772Z,1014.67
2017-05-31T03:07:56.256Z,1014.68
2017-05-31T03:08:36.736Z,1014.67
2017-05-31T03:09:17.249Z,1014.67
2017-05-31T03:09:57.737Z,1014.69
2017-05-31T03:10:38.182Z,1014.73
2017-05-31T03:11:18.690Z,1014.71
2017-05-31T03:11:59.168Z,1014.66
2017-05-31T03:12:39.688Z,1014.76
2017-05-31T03:13:20.167Z,1014.69
2017-05-31T03:14:00.708Z,1014.77
2017-05-31T03:14:41.217Z,1014.76
2017-05-31T03:15:21.715Z,1014.72
2017-05-31T03:16:02.180Z,1014.67
2017-05-31T03:16:42.664Z,1014.66
2017-05-31T03:17:23.145Z,1014.69
2017-05-31T03:18:03.640Z,1014.71
2017-05-31T03:18:44.168Z,1014.75
2017-05-31T03:19:24.696Z,1014.69
2017-05-31T03:20:05.207Z,1014.69
2017-05-31T03:20:45.695Z,1014.74
2017-05-31T03:21:26.200Z,1014.64
2017-05-31T03:22:06.703Z,1014.75
2017-05-31T03:22:47.172Z,1014.73
2017-05-31T03:23:27.701Z,1014.73
2017-05-31T03:24:08.189Z,1014.7
2017-05-31T03:24:48.689Z,1014.73
2017-05-31T03:25:29.174Z,1014.77
2017-05-31T03:26:09.709Z,1014.71
2017-05-31T03:26:50.199Z,1014.75
2017-05-31T03:27:30.703Z,1014.7
2017-05-31T03:28:11.182Z,1014.69
2017-05-31T03:28:51.683Z,1014.79
2017-05-31T03:29:32.146Z,1014.7
2017-05-31T03:30:12.664Z,1014.76
2017-05-31T03:30:53.146Z,1014.68
2017-05-31T03:31:33.661Z,1014.79
2017-05-31T03:32:14.144Z,1014.74
2017-05-31T03:32:54.651Z,1014.75
2017-05-31T03:33:35.149Z,1014.76
2017-05-31T03:34:15.639Z,1014.77
2017-05-31T03:34:56.166Z,1014.74
2017-05-31T03:35:36.644Z,1014.73
2017-05-31T03:36:17.107Z,1014.79
2017-05-31T03:36:57.572Z,1014.79
2017-05-31T03:37:38.061Z,1014.79
2017-05-31T03:38:18.546Z,1014.89
2017-05-31T03:38:59.036Z,1014.75
2017-05-31T03:39:39.523Z,1014.76
2017-05-31T03:40:20.026Z,1014.74
2017-05-31T03:41:00.524Z,1014.78
2017-05-31T03:41:40.997Z,1014.79
2017-05-31T03:42:21.500Z,1014.76
2017-05-31T03:43:02.006Z,1014.76
2017-05-31T03:43:42.475Z,1014.82
2017-05-31T03:44:22.989Z,1014.82
2017-05-31T03:45:03.478Z,1014.73
2017-05-31T03:45:43.951Z,1014.82
2017-05-31T03:46:24.462Z,1014.78
2017-05-31T03:47:04.960Z,1014.69
2017-05-31T03:47:45.481Z,1014.8
2017-05-31T03:48:25.951Z,1014.89
2017-05-31T03:49:06.450Z,1014.69
2017-05-31T03:49:46.958Z,1014.74
2017-05-31T03:50:27.471Z,1014.74
2017-05-31T03:51:07.920Z,1014.88
2017-05-31T03:51:48.426Z,1014.95
2017-05-31T03:52:28.917Z,1014.9
2017-05-31T03:53:09.478Z,1014.81
2017-05-31T03:53:49.962Z,1014.8
2017-05-31T03:54:30.455Z,1014.81
2017-05-31T03:55:10.921Z,1014.79
2017-05-31T03:55:51.447Z,1014.89
2017-05-31T03:56:31.911Z,1014.9
2017-05-31T03:57:12.423Z,1014.96
2017-05-31T03:57:52.909Z,1014.91
2017-05-31T03:58:33.429Z,1014.95
2017-05-31T03:59:13.927Z,1014.91
2017-05-31T03:59:54.447Z,1014.97
2017-05-31T04:00:34.990Z,1014.92
2017-05-31T04:01:15.472Z,1014.9
2017-05-31T04:01:56.001Z,1014.82
2017-05-31T04:02:36.496Z,1014.97
2017-05-31T04:03:16.998Z,1014.94
2017-05-31T04:03:57.550Z,1014.96
2017-05-31T04:04:38.021Z,1015.01
2017-05-31T04:05:18.531Z,1015.01
2017-05-31T04:05:59.035Z,1015
2017-05-31T04:06:39.515Z,1015.04
2017-05-31T04:07:20.056Z,1015.14
2017-05-31T04:08:00.533Z,1015.03
2017-05-31T04:08:41.045Z,1015.12
2017-05-31T04:09:21.510Z,1015.08
2017-05-31T04:10:01.999Z,1015.12
2017-05-31T04:10:42.500Z,1015.12
2017-05-31T04:11:23.006Z,1015.14
2017-05-31T04:12:03.536Z,1015.07
2017-05-31T04:12:44.012Z,1015.07
2017-05-31T04:13:24.528Z,1015.05
2017-05-31T04:14:05.015Z,1015.13
2017-05-31T04:14:45.501Z,1015.21
2017-05-31T04:15:25.984Z,1015.23
2017-05-31T04:16:06.450Z,1015.21
2017-05-31T04:16:46.935Z,1015.3
2017-05-31T04:17:27.476Z,1015.15
2017-05-31T04:18:08.013Z,1015.18
2017-05-31T04:18:48.498Z,1015.2
2017-05-31T04:19:29.071Z,1015.13
2017-05-31T04:20:09.581Z,1015.22
2017-05-31T04:20:50.159Z,1015.21
2017-05-31T04:21:30.711Z,1015.13
2017-05-31T04:22:11.200Z,1015.22
2017-05-31T04:22:51.666Z,1015.2
2017-05-31T04:23:32.170Z,1015.23
2017-05-31T04:24:12.645Z,1015.27
2017-05-31T04:24:53.228Z,1015.27
2017-05-31T04:25:33.839Z,1015.27
2017-05-31T04:26:14.338Z,1015.28
2017-05-31T04:26:54.835Z,1015.38
2017-05-31T04:27:35.381Z,1015.37
2017-05-31T04:28:15.873Z,1015.42
2017-05-31T04:28:56.356Z,1015.32
2017-05-31T04:29:36.844Z,1015.51
2017-05-31T04:30:17.334Z,1015.28
2017-05-31T04:30:57.828Z,1015.28
2017-05-31T04:31:38.310Z,1015.32
2017-05-31T04:32:18.826Z,1015.27
2017-05-31T04:32:59.345Z,1015.31
2017-05-31T04:33:39.959Z,1015.35
2017-05-31T04:34:20.441Z,1015.31
2017-05-31T04:35:00.914Z,1015.27
2017-05-31T04:35:41.405Z,1015.32
2017-05-31T04:36:21.858Z,1015.37
2017-05-31T04:37:02.339Z,1015.39
2017-05-31T04:37:42.829Z,1015.35
2017-05-31T04:38:23.332Z,1015.36
2017-05-31T04:39:03.824Z,1015.35
2017-05-31T04:39:44.354Z,1015.38
2017-05-31T04:40:24.903Z,1015.39
2017-05-31T04:41:05.389Z,1015.55
2017-05-31T04:41:45.884Z,1015.36
2017-05-31T04:42:26.372Z,1015.34
2017-05-31T04:43:06.855Z,1015.55
2017-05-31T04:43:47.364Z,1015.48
2017-05-31T04:46:00.556Z,1015.43
2017-05-31T04:46:41.025Z,1015.51
2017-05-31T04:47:21.522Z,1015.5
2017-05-31T04:48:01.999Z,1015.38
2017-05-31T04:48:42.492Z,1015.44
2017-05-31T04:49:22.968Z,1015.5
2017-05-31T04:50:03.442Z,1015.58
2017-05-31T04:50:43.961Z,1015.59
2017-05-31T04:51:24.542Z,1015.53
2017-05-31T04:52:05.020Z,1015.59
2017-05-31T04:52:45.511Z,1015.58
2017-05-31T04:53:25.994Z,1015.59
2017-05-31T04:54:06.470Z,1015.57
2017-05-31T04:54:46.963Z,1015.56
2017-05-31T04:55:27.406Z,1015.62
2017-05-31T04:56:07.922Z,1015.65
2017-05-31T04:56:48.398Z,1015.6
2017-05-31T04:57:28.935Z,1015.69
2017-05-31T04:58:09.528Z,1015.73
2017-05-31T04:58:50.018Z,1015.61
2017-05-31T04:59:30.625Z,1015.58
2017-05-31T05:00:11.041Z,1015.68
2017-05-31T05:00:51.596Z,1016.06
2017-05-31T05:01:32.089Z,1015.54
2017-05-31T05:02:12.607Z,1015.68
2017-05-31T05:02:53.229Z,1015.62
2017-05-31T05:03:33.746Z,1015.53
2017-05-31T05:04:14.276Z,1015.7
2017-05-31T05:04:54.799Z,1015.66
2017-05-31T05:05:35.276Z,1015.65
2017-05-31T05:06:15.778Z,1015.65
2017-05-31T05:06:56.267Z,1015.64
2017-05-31T05:07:36.752Z,1015.72
2017-05-31T05:08:17.246Z,1015.55
2017-05-31T05:08:57.709Z,1015.68
2017-05-31T05:09:38.225Z,1015.75
2017-05-31T05:10:18.737Z,1015.8
2017-05-31T05:10:59.184Z,1015.59
2017-05-31T05:11:39.749Z,1015.75
2017-05-31T05:12:20.227Z,1015.73
2017-05-31T05:13:00.742Z,1015.92
2017-05-31T05:13:41.258Z,1015.72
2017-05-31T05:14:21.739Z,1015.81
2017-05-31T05:15:02.231Z,1015.9
2017-05-31T05:15:42.737Z,1015.83
2017-05-31T05:16:23.202Z,1015.98
2017-05-31T05:17:03.650Z,1015.74
2017-05-31T05:17:44.181Z,1015.85
2017-05-31T05:18:24.666Z,1015.88
2017-05-31T05:19:05.172Z,1015.73
2017-05-31T05:19:45.640Z,1015.93
2017-05-31T05:20:26.130Z,1015.76
2017-05-31T05:21:06.664Z,1015.79
2017-05-31T05:21:47.235Z,1015.81
2017-05-31T05:22:27.718Z,1016.08
2017-05-31T05:23:08.314Z,1015.89
2017-05-31T05:23:48.769Z,1015.88
2017-05-31T05:24:29.250Z,1016.11
2017-05-31T05:25:09.881Z,1015.97
2017-05-31T05:25:50.354Z,1015.78
2017-05-31T05:26:30.832Z,1015.94
2017-05-31T05:27:11.306Z,1015.84
2017-05-31T05:27:51.789Z,1015.84
2017-05-31T05:28:32.287Z,1015.97
2017-05-31T05:29:12.760Z,1015.9
2017-05-31T05:29:53.240Z,1015.89
2017-05-31T05:30:33.722Z,1015.98
2017-05-31T05:31:14.232Z,1016.15
2017-05-31T05:31:54.702Z,1015.93
2017-05-31T05:32:35.199Z,1015.92
2017-05-31T05:33:15.677Z,1015.99
2017-05-31T05:33:56.220Z,1016.01
2017-05-31T05:34:36.708Z,1015.93
2017-05-31T05:35:17.216Z,1016.14
2017-05-31T05:35:57.713Z,1016
2017-05-31T05:36:38.230Z,1016.04
2017-05-31T05:37:18.692Z,1016.06
2017-05-31T05:37:59.222Z,1015.98
2017-05-31T05:38:39.719Z,1016.05
2017-05-31T05:39:20.206Z,1015.98
2017-05-31T05:40:00.718Z,1015.97
2017-05-31T05:40:41.207Z,1016.02
2017-05-31T05:41:21.741Z,1016.05
2017-05-31T05:42:02.224Z,1016
2017-05-31T05:42:42.738Z,1015.92
2017-05-31T05:43:23.233Z,1016.12
2017-05-31T05:44:03.809Z,1016.13
2017-05-31T05:44:44.369Z,1016.17
2017-05-31T05:45:24.969Z,1016.14
2017-05-31T05:46:05.476Z,1016.16
2017-05-31T05:46:46.248Z,1016.16
2017-05-31T05:47:26.725Z,1016.09
2017-05-31T05:48:07.279Z,1016.05
2017-05-31T05:48:47.794Z,1016.04
2017-05-31T05:49:28.299Z,1016.14
2017-05-31T05:50:08.792Z,1016.01
2017-05-31T05:50:49.338Z,1016.03
2017-05-31T05:51:29.881Z,1016.07
2017-05-31T05:52:10.407Z,1016.04
2017-05-31T05:52:50.924Z,1016.2
2017-05-31T05:53:31.462Z,1016.17
2017-05-31T05:54:11.937Z,1016
2017-05-31T05:54:52.423Z,1016.17
2017-05-31T05:55:32.923Z,1016.16
2017-05-31T05:56:13.423Z,1016.18
2017-05-31T05:56:53.875Z,1016.16
2017-05-31T05:57:34.402Z,1016.34
2017-05-31T05:58:14.881Z,1016.31
2017-05-31T05:58:55.377Z,1016.47
2017-05-31T05:59:35.861Z,1016.28
2017-05-31T06:00:16.361Z,1016.27
2017-05-31T06:00:57.605Z,1016.38
2017-05-31T06:01:38.112Z,1016.36
2017-05-31T06:02:18.623Z,1016.38
2017-05-31T06:02:59.138Z,1016.39
2017-05-31T06:03:39.650Z,1016.17
2017-05-31T06:04:20.151Z,1016.56
2017-05-31T06:05:00.592Z,1016.4
2017-05-31T06:05:41.084Z,1016.43
2017-05-31T06:06:21.603Z,1016.49
2017-05-31T06:07:02.127Z,1016.38
2017-05-31T06:07:42.572Z,1016.43
2017-05-31T06:08:23.062Z,1016.39
2017-05-31T06:09:03.574Z,1016.4
2017-05-31T06:09:44.003Z,1016.33
2017-05-31T06:10:24.484Z,1016.51
2017-05-31T06:11:04.940Z,1016.49
2017-05-31T06:11:45.403Z,1016.69
2017-05-31T06:12:25.968Z,1016.5
2017-05-31T06:13:06.433Z,1016.51
2017-05-31T06:13:46.904Z,1016.55
2017-05-31T06:14:27.383Z,1016.45
2017-05-31T06:15:07.917Z,1016.41
2017-05-31T06:15:48.359Z,1016.52
2017-05-31T06:16:28.845Z,1016.6
2017-05-31T06:17:09.312Z,1016.62
2017-05-31T06:17:49.820Z,1016.47
2017-05-31T06:18:30.382Z,1016.53
2017-05-31T06:19:10.952Z,1016.52
2017-05-31T06:19:51.614Z,1016.85
2017-05-31T06:20:32.221Z,1016.69
2017-05-31T06:21:12.812Z,1016.48
2017-05-31T06:21:53.285Z,1016.67
2017-05-31T06:22:33.883Z,1016.54
2017-05-31T06:23:14.367Z,1016.64
2017-05-31T06:23:54.915Z,1016.65
2017-05-31T06:24:35.435Z,1016.56
2017-05-31T06:25:16.016Z,1016.62
2017-05-31T06:25:56.522Z,1016.63
2017-05-31T06:26:37.075Z,1016.68
2017-05-31T06:27:17.653Z,1016.89
2017-05-31T06:27:58.152Z,1017.02
2017-05-31T06:28:38.624Z,1017.04
2017-05-31T06:29:19.197Z,1016.68
2017-05-31T06:30:01.978Z,1016.87
2017-05-31T06:30:42.733Z,1016.88
2017-05-31T06:31:23.270Z,1016.82
2017-05-31T06:32:03.900Z,1016.75
2017-05-31T06:32:44.381Z,1016.84
2017-05-31T06:33:24.925Z,1016.98
2017-05-31T06:34:05.459Z,1016.69
2017-05-31T06:34:46.007Z,1016.79
2017-05-31T06:35:26.649Z,1016.92
2017-05-31T06:36:07.160Z,1016.94
2017-05-31T06:36:51.243Z,1017.15
2017-05-31T06:37:46.211Z,1016.91
2017-05-31T06:38:39.906Z,1016.98
2017-05-31T06:39:36.168Z,1016.95
2017-05-31T06:40:16.166Z,1016.97
2017-05-31T06:40:56.655Z,1016.91
2017-05-31T06:41:37.266Z,1016.75
2017-05-31T06:42:17.821Z,1016.9
2017-05-31T06:42:58.403Z,1017.04
2017-05-31T06:43:38.930Z,1016.94
2017-05-31T06:44:19.447Z,1017.01
2017-05-31T06:44:59.989Z,1016.98
2017-05-31T06:45:40.486Z,1017
2017-05-31T06:46:20.959Z,1016.96
2017-05-31T06:47:01.431Z,1017.1
2017-05-31T06:47:41.920Z,1016.95
2017-05-31T06:48:23.262Z,1017.02
2017-05-31T06:49:03.770Z,1017.03
2017-05-31T06:49:44.386Z,1017.05
2017-05-31T06:50:24.906Z,1017.11
2017-05-31T06:51:05.391Z,1017.07
2017-05-31T06:51:45.991Z,1016.96
2017-05-31T06:52:26.668Z,1017.19
2017-05-31T06:53:07.204Z,1017.2
2017-05-31T06:53:47.698Z,1017
2017-05-31T06:54:28.166Z,1017.1
2017-05-31T06:55:08.678Z,1017.17
2017-05-31T06:55:49.201Z,1017.01
2017-05-31T06:56:29.731Z,1017.1
2017-05-31T06:57:10.978Z,1017.05
2017-05-31T06:57:51.421Z,1017.1
2017-05-31T06:58:32.860Z,1017.07
2017-05-31T06:59:13.370Z,1017.11
2017-05-31T06:59:53.882Z,1017.05
2017-05-31T07:00:34.379Z,1017.04
2017-05-31T07:01:14.880Z,1017.06
2017-05-31T07:01:55.427Z,1017.16
2017-05-31T07:02:35.929Z,1017.11
2017-05-31T07:03:17.021Z,1017.08
2017-05-31T07:03:57.781Z,1017.26
2017-05-31T07:04:38.286Z,1017.26
2017-05-31T07:05:18.794Z,1017.31
2017-05-31T07:05:59.360Z,1017.31
2017-05-31T07:06:40.844Z,1017.21
2017-05-31T07:07:21.325Z,1017.22
2017-05-31T07:08:01.788Z,1017.35
2017-05-31T07:08:42.312Z,1017.34
2017-05-31T07:09:23.311Z,1017.32
2017-05-31T07:10:03.805Z,1017.51
2017-05-31T07:10:44.330Z,1017.45
2017-05-31T07:11:25.278Z,1017.48
2017-05-31T07:12:05.770Z,1017.37
2017-05-31T07:12:46.260Z,1017.41
2017-05-31T07:13:26.787Z,1017.47
2017-05-31T07:14:07.397Z,1017.52
2017-05-31T07:14:47.911Z,1017.57
2017-05-31T07:15:28.387Z,1017.62
2017-05-31T07:16:10.857Z,1017.4
2017-05-31T07:16:51.229Z,1017.61
2017-05-31T07:17:31.744Z,1017.61
2017-05-31T07:18:12.201Z,1017.89
2017-05-31T07:18:52.725Z,1017.4
2017-05-31T07:19:33.214Z,1017.64
2017-05-31T07:20:13.733Z,1017.64
2017-05-31T07:20:54.225Z,1017.63
2017-05-31T07:21:34.736Z,1017.64
2017-05-31T07:22:15.220Z,1017.59
2017-05-31T07:22:55.732Z,1017.64
2017-05-31T07:23:36.211Z,1017.67
2017-05-31T07:24:16.726Z,1017.98
2017-05-31T07:24:57.188Z,1017.8
2017-05-31T07:25:37.681Z,1017.57
2017-05-31T07:26:18.375Z,1017.78
2017-05-31T07:26:58.858Z,1017.89
2017-05-31T07:27:39.394Z,1018.18
2017-05-31T07:28:19.925Z,1017.77
2017-05-31T07:29:00.410Z,1017.9
2017-05-31T07:29:41.018Z,1017.74
2017-05-31T07:30:21.569Z,1017.8
2017-05-31T07:31:02.063Z,1017.84
2017-05-31T07:31:42.597Z,1017.85
2017-05-31T07:32:23.070Z,1017.94
2017-05-31T07:33:03.640Z,1017.98
2017-05-31T07:33:44.144Z,1018.21
2017-05-31T07:34:24.635Z,1018.1
2017-05-31T07:35:05.179Z,1017.91
2017-05-31T07:35:45.630Z,1017.98
2017-05-31T07:36:26.124Z,1017.98
2017-05-31T07:37:06.602Z,1017.89
2017-05-31T07:37:47.156Z,1017.92
2017-05-31T07:38:27.997Z,1017.95
2017-05-31T07:39:08.480Z,1017.81
2017-05-31T07:39:48.961Z,1018.24
2017-05-31T07:40:29.746Z,1018.05
2017-05-31T07:41:10.621Z,1017.93
2017-05-31T07:41:51.573Z,1017.93
2017-05-31T07:42:32.069Z,1017.94
2017-05-31T07:43:12.683Z,1017.98
2017-05-31T07:43:53.197Z,1017.9
2017-05-31T07:44:33.696Z,1017.92
2017-05-31T07:45:14.237Z,1017.83
2017-05-31T07:45:54.805Z,1017.97
2017-05-31T07:46:35.339Z,1017.93
2017-05-31T07:47:15.808Z,1017.82
2017-05-31T07:47:56.618Z,1017.93
2017-05-31T07:48:37.257Z,1018.01
2017-05-31T07:49:17.724Z,1018.03
2017-05-31T07:49:58.247Z,1017.89
2017-05-31T07:50:38.783Z,1017.89
2017-05-31T07:51:19.298Z,1017.83
2017-05-31T07:53:52.878Z,1018.05
2017-05-31T07:54:34.188Z,1018.09
2017-05-31T07:55:16.367Z,1018.01
2017-05-31T07:55:57.195Z,1018.02
2017-05-31T07:56:38.521Z,1018.07
2017-05-31T07:57:19.046Z,1018.1
2017-05-31T07:57:59.557Z,1018.09
2017-05-31T07:58:40.054Z,1018.21
2017-05-31T07:59:21.037Z,1018.24
2017-05-31T08:00:01.541Z,1018.28
2017-05-31T08:00:42.072Z,1018.1
2017-05-31T08:01:22.610Z,1018.18
2017-05-31T08:02:03.094Z,1018.08
2017-05-31T08:02:43.613Z,1018.37
2017-05-31T08:03:24.114Z,1018.27
2017-05-31T08:04:04.594Z,1018.22
2017-05-31T08:04:45.069Z,1018.52
2017-05-31T08:05:25.623Z,1018.33
2017-05-31T08:06:06.391Z,1018.2
2017-05-31T08:06:46.914Z,1018.27
2017-05-31T08:07:27.423Z,1018.58
2017-05-31T08:08:07.980Z,1018.6
2017-05-31T08:08:50.420Z,1018.38
2017-05-31T08:09:32.879Z,1018.28
2017-05-31T08:10:14.358Z,1018.53
2017-05-31T08:10:54.915Z,1018.34
2017-05-31T08:11:35.448Z,1018.32
2017-05-31T08:12:15.945Z,1018.65
2017-05-31T08:12:56.468Z,1018.66
2017-05-31T08:13:38.444Z,1018.48
2017-05-31T08:14:19.035Z,1018.56
2017-05-31T08:15:00.547Z,1018.59
2017-05-31T08:17:29.166Z,1018.7
2017-05-31T08:18:09.778Z,1018.58
2017-05-31T08:18:50.323Z,1018.76
2017-05-31T08:19:30.993Z,1018.7
2017-05-31T08:20:11.634Z,1018.62
2017-05-31T08:20:52.106Z,1018.77
2017-05-31T08:21:32.651Z,1018.64
2017-05-31T08:22:13.163Z,1018.68